createdAt,value
2018-01-14T00:00:07.978Z,5.50
2018-01-14T00:02:34.346Z,5.80
2018-01-14T00:05:00.777Z,5.40
2018-01-14T00:07:27.113Z,5.50
2018-01-14T00:09:53.354Z,5.30
2018-01-14T00:12:19.706Z,5.40
2018-01-14T00:14:46.710Z,5.40
2018-01-14T00:17:13.213Z,5.40
2018-01-14T00:19:40.188Z,5.30
2018-01-14T00:22:07.181Z,5.30
2018-01-14T00:24:33.417Z,5.30
2018-01-14T00:26:59.837Z,5.40
2018-01-14T00:29:26.090Z,5.40
2018-01-14T00:31:53.324Z,5.50
2018-01-14T00:34:20.321Z,5.60
2018-01-14T00:36:46.377Z,5.60
2018-01-14T00:39:12.436Z,5.60
2018-01-14T00:41:38.694Z,5.50
2018-01-14T00:44:05.461Z,5.20
2018-01-14T00:46:31.485Z,5.20
2018-01-14T00:48:58.248Z,5.40
2018-01-14T00:51:24.280Z,5.40
2018-01-14T00:53:50.325Z,5.50
2018-01-14T00:56:16.685Z,5.70
2018-01-14T00:58:42.904Z,5.40
2018-01-14T01:01:10.237Z,5.40
2018-01-14T01:03:36.495Z,5.30
2018-01-14T01:06:02.713Z,5.50
2018-01-14T01:08:28.830Z,5.60
2018-01-14T01:10:56.001Z,5.30
2018-01-14T01:13:23.140Z,5.90
2018-01-14T01:15:49.245Z,5.20
2018-01-14T01:18:15.321Z,5.70
2018-01-14T01:20:41.565Z,5.30
2018-01-14T01:23:07.819Z,5.20
2018-01-14T01:25:34.062Z,5.40
2018-01-14T01:28:00.309Z,5.40
2018-01-14T01:30:26.568Z,5.50
2018-01-14T01:32:52.781Z,5.60
2018-01-14T01:35:19.024Z,5.40
2018-01-14T01:37:45.043Z,5.50
2018-01-14T01:40:11.068Z,5.60
2018-01-14T01:42:37.108Z,5.10
2018-01-14T01:45:03.157Z,5.40
2018-01-14T01:47:29.201Z,5.60
2018-01-14T01:49:56.252Z,5.60
2018-01-14T01:52:22.521Z,5.60
2018-01-14T01:54:49.521Z,5.60
2018-01-14T01:57:15.834Z,5.60
2018-01-14T01:59:42.829Z,5.40
2018-01-14T02:02:09.072Z,5.30
2018-01-14T02:04:35.315Z,5.40
2018-01-14T02:07:01.800Z,5.50
2018-01-14T02:09:28.300Z,5.50
2018-01-14T02:11:54.561Z,5.40
2018-01-14T02:14:20.887Z,5.10
2018-01-14T02:16:47.224Z,5.00
2018-01-14T02:19:13.496Z,5.10
2018-01-14T02:21:39.813Z,5.20
2018-01-14T02:24:06.044Z,5.30
2018-01-14T02:26:32.996Z,5.10
2018-01-14T02:28:59.984Z,5.00
2018-01-14T02:31:26.300Z,5.00
2018-01-14T02:33:52.545Z,5.10
2018-01-14T02:36:18.834Z,5.30
2018-01-14T02:38:44.881Z,5.70
2018-01-14T02:41:11.141Z,5.50
2018-01-14T02:43:38.377Z,5.90
2018-01-14T02:46:04.405Z,5.80
2018-01-14T02:48:31.156Z,5.80
2018-01-14T02:50:57.332Z,5.80
2018-01-14T02:53:23.426Z,5.90
2018-01-14T02:55:49.688Z,5.80
2018-01-14T02:58:15.943Z,5.80
2018-01-14T03:00:42.913Z,5.60
2018-01-14T03:03:09.889Z,5.50
2018-01-14T03:05:36.128Z,5.50
2018-01-14T03:08:02.360Z,5.50
2018-01-14T03:10:28.595Z,5.40
2018-01-14T03:12:55.559Z,5.50
2018-01-14T03:15:22.258Z,5.50
2018-01-14T03:17:48.276Z,5.50
2018-01-14T03:20:14.298Z,5.60
2018-01-14T03:22:40.347Z,5.70
2018-01-14T03:25:06.369Z,5.90
2018-01-14T03:27:32.400Z,5.70
2018-01-14T03:29:58.449Z,5.80
2018-01-14T03:32:24.609Z,5.60
2018-01-14T03:34:50.675Z,5.70
2018-01-14T03:37:16.706Z,5.40
2018-01-14T03:39:43.467Z,5.50
2018-01-14T03:42:09.474Z,5.50
2018-01-14T03:44:35.502Z,5.80
2018-01-14T03:47:01.621Z,5.40
2018-01-14T03:49:28.061Z,5.70
2018-01-14T03:51:54.336Z,5.20
2018-01-14T03:54:20.561Z,5.30
2018-01-14T03:56:46.805Z,5.30
2018-01-14T03:59:13.020Z,5.50
2018-01-14T04:01:39.488Z,5.70
2018-01-14T04:04:05.741Z,5.40
2018-01-14T04:06:31.957Z,5.50
2018-01-14T04:08:58.177Z,5.60
2018-01-14T04:11:24.409Z,5.40
2018-01-14T04:13:51.408Z,5.40
2018-01-14T04:16:17.681Z,5.40
2018-01-14T04:18:44.122Z,5.40
2018-01-14T04:21:10.345Z,5.50
2018-01-14T04:23:36.737Z,5.50
2018-01-14T04:26:03.002Z,5.50
2018-01-14T04:28:29.539Z,5.50
2018-01-14T04:30:55.864Z,5.40
2018-01-14T04:33:22.141Z,5.40
2018-01-14T04:35:48.360Z,5.30
2018-01-14T04:38:14.581Z,5.20
2018-01-14T04:40:40.849Z,5.30
2018-01-14T04:43:06.918Z,5.20
2018-01-14T04:45:32.929Z,5.20
2018-01-14T04:47:58.937Z,5.30
2018-01-14T04:50:25.736Z,5.00
2018-01-14T04:52:51.756Z,5.00
2018-01-14T04:55:17.781Z,4.80
2018-01-14T04:57:43.785Z,4.90
2018-01-14T05:00:09.808Z,5.10
2018-01-14T05:02:36.585Z,5.30
2018-01-14T05:05:03.344Z,5.30
2018-01-14T05:07:29.388Z,5.30
2018-01-14T05:09:55.415Z,5.30
2018-01-14T05:12:22.992Z,5.40
2018-01-14T05:14:49.021Z,5.30
2018-01-14T05:17:15.781Z,5.40
2018-01-14T05:19:42.038Z,5.40
2018-01-14T05:22:09.054Z,5.20
2018-01-14T05:24:35.283Z,5.10
2018-01-14T05:27:01.566Z,4.80
2018-01-14T05:29:27.805Z,4.70
2018-01-14T05:31:54.784Z,4.90
2018-01-14T05:34:20.991Z,4.90
2018-01-14T05:36:47.353Z,5.00
2018-01-14T05:39:13.592Z,5.20
2018-01-14T05:41:40.101Z,4.90
2018-01-14T05:44:06.151Z,4.70
2018-01-14T05:46:32.913Z,4.60
2018-01-14T05:48:59.696Z,4.50
2018-01-14T05:51:25.743Z,4.50
2018-01-14T05:53:52.289Z,4.50
2018-01-14T05:56:18.296Z,4.40
2018-01-14T05:58:45.058Z,4.50
2018-01-14T06:01:11.094Z,4.50
2018-01-14T06:03:37.117Z,4.50
2018-01-14T06:06:03.877Z,4.60
2018-01-14T06:08:30.633Z,4.70
2018-01-14T06:10:57.380Z,4.60
2018-01-14T06:13:24.142Z,4.70
2018-01-14T06:15:50.160Z,4.70
2018-01-14T06:18:16.916Z,4.70
2018-01-14T06:20:43.725Z,4.70
2018-01-14T06:23:09.805Z,4.70
2018-01-14T06:25:36.585Z,4.60
2018-01-14T06:28:02.673Z,4.60
2018-01-14T06:30:28.890Z,4.60
2018-01-14T06:32:55.154Z,4.60
2018-01-14T06:35:21.382Z,4.50
2018-01-14T06:37:47.643Z,4.50
2018-01-14T06:40:14.201Z,4.50
2018-01-14T06:42:41.178Z,4.50
2018-01-14T06:45:07.413Z,4.20
2018-01-14T06:47:33.649Z,4.30
2018-01-14T06:50:00.013Z,4.50
2018-01-14T06:52:26.298Z,4.20
2018-01-14T06:54:52.564Z,4.40
2018-01-14T06:57:19.555Z,4.20
2018-01-14T06:59:45.852Z,4.20
2018-01-14T07:02:13.288Z,4.30
2018-01-14T07:04:39.516Z,4.30
2018-01-14T07:07:05.779Z,4.30
2018-01-14T07:09:32.020Z,4.30
2018-01-14T07:11:58.240Z,4.60
2018-01-14T07:14:24.504Z,4.70
2018-01-14T07:16:50.729Z,4.60
2018-01-14T07:19:16.952Z,4.60
2018-01-14T07:21:43.168Z,4.90
2018-01-14T07:24:10.137Z,4.40
2018-01-14T07:26:36.408Z,4.40
2018-01-14T07:29:02.693Z,4.60
2018-01-14T07:31:28.717Z,4.30
2018-01-14T07:33:54.737Z,4.20
2018-01-14T07:36:20.760Z,4.10
2018-01-14T07:38:47.529Z,4.00
2018-01-14T07:41:13.545Z,4.00
2018-01-14T07:43:39.564Z,4.00
2018-01-14T07:46:05.620Z,4.10
2018-01-14T07:48:31.638Z,4.10
2018-01-14T07:50:57.655Z,4.20
2018-01-14T07:53:23.696Z,4.00
2018-01-14T07:55:49.725Z,4.60
2018-01-14T07:58:16.633Z,4.10
2018-01-14T08:00:43.418Z,4.10
2018-01-14T08:03:09.628Z,4.10
2018-01-14T08:05:35.853Z,4.00
2018-01-14T08:08:02.072Z,4.20
2018-01-14T08:10:28.364Z,4.20
2018-01-14T08:12:54.589Z,4.20
2018-01-14T08:15:20.809Z,4.20
2018-01-14T08:17:47.037Z,4.50
2018-01-14T08:20:13.981Z,4.20
2018-01-14T08:22:40.269Z,4.60
2018-01-14T08:25:07.414Z,4.20
2018-01-14T08:27:33.636Z,4.20
2018-01-14T08:29:59.861Z,4.50
2018-01-14T08:32:26.832Z,4.50
2018-01-14T08:34:53.057Z,4.50
2018-01-14T08:37:20.033Z,4.30
2018-01-14T08:39:46.268Z,4.30
2018-01-14T08:42:12.521Z,4.00
2018-01-14T08:44:38.797Z,4.20
2018-01-14T08:47:05.024Z,4.60
2018-01-14T08:49:31.244Z,4.70
2018-01-14T08:51:57.265Z,4.30
2018-01-14T08:54:24.060Z,4.30
2018-01-14T08:56:50.831Z,4.40
2018-01-14T08:59:16.860Z,4.70
2018-01-14T09:01:48.985Z,4.30
2018-01-14T09:04:15.765Z,4.30
2018-01-14T09:06:41.864Z,4.20
2018-01-14T09:09:08.630Z,4.30
2018-01-14T09:11:35.414Z,4.60
2018-01-14T09:14:01.458Z,4.60
2018-01-14T09:16:27.532Z,4.50
2018-01-14T09:18:54.313Z,4.50
2018-01-14T09:21:21.118Z,4.60
2018-01-14T09:23:47.133Z,4.60
2018-01-14T09:26:13.157Z,4.80
2018-01-14T09:28:39.273Z,4.50
2018-01-14T09:31:06.232Z,4.80
2018-01-14T09:33:32.528Z,4.80
2018-01-14T09:35:58.785Z,4.90
2018-01-14T09:38:25.004Z,4.90
2018-01-14T09:40:51.232Z,4.90
2018-01-14T09:43:17.299Z,4.90
2018-01-14T09:45:43.339Z,5.10
2018-01-14T09:48:09.649Z,4.90
2018-01-14T09:50:35.930Z,4.80
2018-01-14T09:53:02.993Z,4.80
2018-01-14T09:55:29.236Z,4.80
2018-01-14T09:57:55.564Z,5.30
2018-01-14T10:00:21.895Z,5.10
2018-01-14T10:02:48.092Z,5.40
2018-01-14T10:05:14.583Z,5.00
2018-01-14T10:07:41.165Z,4.90
2018-01-14T10:10:07.513Z,5.00
2018-01-14T10:12:34.762Z,5.10
2018-01-14T10:15:01.005Z,5.00
2018-01-14T10:17:27.337Z,5.10
2018-01-14T10:19:53.561Z,5.20
2018-01-14T10:22:19.801Z,5.10
2018-01-14T10:24:46.634Z,6.00
2018-01-14T10:27:12.667Z,5.60
2018-01-14T10:29:39.241Z,5.60
2018-01-14T10:32:05.263Z,5.60
2018-01-14T10:34:31.294Z,5.70
2018-01-14T10:36:57.544Z,5.70
2018-01-14T10:39:23.757Z,5.70
2018-01-14T10:41:50.013Z,6.10
2018-01-14T10:44:16.317Z,6.00
2018-01-14T10:46:43.302Z,6.10
2018-01-14T10:49:09.542Z,6.10
2018-01-14T10:51:36.821Z,6.10
2018-01-14T10:54:02.893Z,6.10
2018-01-14T10:56:28.945Z,6.10
2018-01-14T10:58:54.995Z,6.30
2018-01-14T11:01:27.080Z,6.60
2018-01-14T11:03:53.151Z,6.80
2018-01-14T11:06:19.289Z,7.00
2018-01-14T11:08:45.353Z,7.20
2018-01-14T11:11:11.401Z,6.90
2018-01-14T11:13:37.493Z,7.10
2018-01-14T11:16:03.565Z,7.00
2018-01-14T11:18:29.660Z,7.40
2018-01-14T11:20:55.921Z,7.30
2018-01-14T11:23:22.264Z,7.30
2018-01-14T11:25:48.597Z,7.70
2018-01-14T11:28:15.833Z,7.60
2018-01-14T11:30:42.084Z,7.70
2018-01-14T11:33:08.184Z,7.60
2018-01-14T11:35:35.456Z,7.90
2018-01-14T11:38:02.706Z,7.80
2018-01-14T11:40:29.095Z,7.80
2018-01-14T11:42:55.412Z,7.60
2018-01-14T11:45:21.688Z,7.60
2018-01-14T11:47:47.981Z,7.40
2018-01-14T11:50:14.988Z,7.50
2018-01-14T11:52:41.285Z,7.50
2018-01-14T11:55:07.581Z,7.40
2018-01-14T11:57:33.829Z,6.70
2018-01-14T12:00:00.115Z,6.90
2018-01-14T12:02:26.377Z,6.80
2018-01-14T12:04:52.911Z,6.90
2018-01-14T12:07:19.144Z,6.80
2018-01-14T12:09:46.136Z,6.90
2018-01-14T12:12:12.420Z,6.90
2018-01-14T12:14:38.946Z,7.20
2018-01-14T12:17:05.187Z,7.60
2018-01-14T12:19:31.850Z,7.70
2018-01-14T12:21:58.393Z,7.70
2018-01-14T12:24:24.682Z,8.10
2018-01-14T12:26:51.287Z,8.20
2018-01-14T12:29:17.663Z,8.40
2018-01-14T12:31:44.648Z,8.50
2018-01-14T12:37:08.814Z,8.50
2018-01-14T12:39:35.082Z,8.50
2018-01-14T12:42:03.551Z,8.60
2018-01-14T12:44:29.900Z,8.60
2018-01-14T12:46:56.394Z,8.40
2018-01-14T12:49:23.553Z,8.20
2018-01-14T12:51:50.468Z,8.30
2018-01-14T12:54:20.671Z,8.30
2018-01-14T12:56:46.945Z,8.40
2018-01-14T12:59:13.196Z,8.30
2018-01-14T13:01:39.464Z,8.30
2018-01-14T13:04:05.747Z,8.00
2018-01-14T13:06:32.734Z,8.30
2018-01-14T13:08:58.984Z,8.70
2018-01-14T13:11:27.125Z,8.10
2018-01-14T13:13:53.961Z,8.30
2018-01-14T13:16:20.213Z,8.10
2018-01-14T13:18:46.457Z,8.10
2018-01-14T13:21:12.715Z,7.80
2018-01-14T13:23:38.936Z,8.00
2018-01-14T13:26:05.157Z,8.30
2018-01-14T13:28:35.224Z,8.40
2018-01-14T13:31:01.551Z,8.60
2018-01-14T13:33:28.602Z,8.90
2018-01-14T13:35:54.882Z,8.80
2018-01-14T13:40:52.457Z,9.10
2018-01-14T13:43:18.846Z,9.10
2018-01-14T13:45:45.093Z,9.20
2018-01-14T13:48:11.353Z,8.90
2018-01-14T13:50:37.668Z,9.20
2018-01-14T13:53:03.925Z,9.30
2018-01-14T13:55:30.912Z,8.40
2018-01-14T13:57:57.053Z,8.40
2018-01-14T14:00:23.415Z,8.20
2018-01-14T14:02:50.427Z,8.80
2018-01-14T14:07:47.849Z,8.80
2018-01-14T14:10:13.894Z,8.70
2018-01-14T14:12:39.965Z,8.10
2018-01-14T14:15:06.773Z,8.40
2018-01-14T14:17:32.849Z,8.30
2018-01-14T14:19:59.097Z,8.60
2018-01-14T14:22:26.093Z,8.60
2018-01-14T14:24:56.078Z,8.60
2018-01-14T14:27:28.786Z,8.60
2018-01-14T14:29:55.768Z,8.50
2018-01-14T14:32:22.088Z,8.50
2018-01-14T14:34:48.308Z,8.60
2018-01-14T14:37:14.557Z,8.60
2018-01-14T14:39:40.941Z,8.50
2018-01-14T14:42:07.005Z,8.50
2018-01-14T14:44:33.053Z,8.30
2018-01-14T14:46:59.176Z,8.10
2018-01-14T14:49:29.843Z,8.20
2018-01-14T14:51:56.170Z,7.90
2018-01-14T14:54:22.452Z,8.10
2018-01-14T14:56:48.716Z,8.00
2018-01-14T14:59:14.952Z,8.00
2018-01-14T15:01:41.213Z,8.00
2018-01-14T15:04:08.579Z,7.80
2018-01-14T15:06:34.936Z,7.80
2018-01-14T15:09:01.952Z,7.60
2018-01-14T15:11:28.243Z,7.50
2018-01-14T15:13:55.228Z,7.40
2018-01-14T15:16:21.554Z,7.40
2018-01-14T15:18:48.566Z,7.30
2018-01-14T15:21:15.824Z,7.20
2018-01-14T15:23:42.066Z,7.10
2018-01-14T15:26:08.330Z,7.10
2018-01-14T15:28:34.654Z,6.80
2018-01-14T15:31:01.697Z,6.60
2018-01-14T15:33:28.034Z,6.60
2018-01-14T15:35:54.340Z,6.80
2018-01-14T15:38:20.593Z,6.60
2018-01-14T15:40:47.625Z,6.70
2018-01-14T15:43:13.981Z,6.60
2018-01-14T15:45:40.253Z,6.60
2018-01-14T15:48:06.513Z,6.50
2018-01-14T15:50:33.192Z,6.50
2018-01-14T15:52:59.678Z,6.20
2018-01-14T15:55:26.668Z,5.70
2018-01-14T15:57:52.937Z,5.70
2018-01-14T16:00:19.200Z,5.80
2018-01-14T16:02:45.544Z,5.80
2018-01-14T16:05:11.797Z,5.60
2018-01-14T16:07:38.185Z,5.50
2018-01-14T16:10:04.940Z,5.60
2018-01-14T16:12:31.482Z,5.40
2018-01-14T16:14:57.730Z,5.50
2018-01-14T16:17:23.996Z,5.50
2018-01-14T16:19:50.343Z,5.40
2018-01-14T16:22:16.761Z,5.40
2018-01-14T16:24:43.013Z,5.30
2018-01-14T16:27:09.290Z,5.20
2018-01-14T16:29:35.546Z,5.00
2018-01-14T16:32:02.440Z,5.10
2018-01-14T16:34:28.537Z,5.00
2018-01-14T16:36:55.318Z,4.80
2018-01-14T16:39:21.411Z,4.80
2018-01-14T16:41:47.547Z,4.80
2018-01-14T16:44:13.572Z,4.80
2018-01-14T16:46:39.608Z,5.30
2018-01-14T16:49:05.638Z,4.90
2018-01-14T16:51:31.654Z,5.00
2018-01-14T16:53:57.854Z,5.00
2018-01-14T16:56:24.180Z,5.20
2018-01-14T16:58:50.533Z,5.10
2018-01-14T17:01:17.535Z,5.00
2018-01-14T17:03:43.828Z,5.00
2018-01-14T17:06:10.117Z,5.20
2018-01-14T17:08:36.404Z,5.20
2018-01-14T17:11:03.472Z,5.20
2018-01-14T17:13:29.826Z,5.20
2018-01-14T17:15:56.068Z,5.00
2018-01-14T17:18:23.143Z,4.70
2018-01-14T17:20:50.437Z,4.50
2018-01-14T17:23:16.714Z,4.50
2018-01-14T17:25:43.709Z,4.50
2018-01-14T17:28:10.057Z,4.50
2018-01-14T17:30:37.130Z,4.50
2018-01-14T17:33:03.368Z,4.50
2018-01-14T17:35:29.594Z,4.60
2018-01-14T17:37:55.844Z,4.70
2018-01-14T17:40:22.120Z,4.80
2018-01-14T17:42:48.477Z,4.60
2018-01-14T17:45:14.737Z,4.60
2018-01-14T17:47:41.106Z,4.80
2018-01-14T17:50:07.387Z,4.80
2018-01-14T17:52:33.657Z,4.80
2018-01-14T17:54:59.912Z,4.80
2018-01-14T17:57:26.191Z,4.70
2018-01-14T17:59:52.673Z,4.50
2018-01-14T18:02:20.498Z,4.60
2018-01-14T18:04:47.500Z,4.50
2018-01-14T18:07:13.762Z,4.50
2018-01-14T18:09:40.118Z,4.60
2018-01-14T18:12:06.795Z,4.60
2018-01-14T18:14:33.093Z,4.60
2018-01-14T18:17:00.998Z,4.50
2018-01-14T18:19:27.244Z,4.50
2018-01-14T18:21:54.230Z,4.40
2018-01-14T18:24:20.491Z,4.40
2018-01-14T18:26:46.764Z,4.40
2018-01-14T18:29:13.814Z,4.20
2018-01-14T18:31:40.066Z,4.20
2018-01-14T18:34:06.396Z,4.30
2018-01-14T18:36:33.281Z,4.20
2018-01-14T18:39:00.266Z,4.00
2018-01-14T18:41:26.532Z,4.00
2018-01-14T18:43:52.769Z,4.20
2018-01-14T18:46:18.996Z,4.20
2018-01-14T18:48:45.297Z,4.60
2018-01-14T18:51:12.264Z,4.40
2018-01-14T18:53:39.272Z,4.10
2018-01-14T18:56:05.501Z,4.10
2018-01-14T18:58:31.723Z,4.20
2018-01-14T19:00:57.992Z,4.60
2018-01-14T19:03:24.245Z,4.40
2018-01-14T19:05:50.284Z,4.20
2018-01-14T19:08:16.372Z,4.30
2018-01-14T19:10:42.408Z,4.30
2018-01-14T19:13:08.450Z,4.20
2018-01-14T19:15:34.740Z,4.30
2018-01-14T19:18:00.832Z,4.30
2018-01-14T19:20:26.901Z,4.20
2018-01-14T19:22:52.928Z,4.30
2018-01-14T19:25:18.950Z,4.30
2018-01-14T19:27:45.005Z,4.30
2018-01-14T19:30:18.026Z,4.20
2018-01-14T19:32:44.041Z,4.20
2018-01-14T19:35:10.921Z,4.30
2018-01-14T19:37:37.002Z,4.30
2018-01-14T19:40:03.048Z,4.20
2018-01-14T19:42:29.563Z,4.70
2018-01-14T19:44:56.232Z,3.90
2018-01-14T19:47:22.532Z,3.70
2018-01-14T19:49:48.911Z,4.00
2018-01-14T19:52:16.177Z,4.00
2018-01-14T19:54:42.480Z,4.10
2018-01-14T19:57:08.948Z,4.10
2018-01-14T19:59:35.186Z,4.10
2018-01-14T20:02:02.178Z,4.10
2018-01-14T20:04:28.489Z,4.10
2018-01-14T20:06:54.717Z,4.20
2018-01-14T20:09:21.691Z,4.10
2018-01-14T20:11:47.932Z,4.10
2018-01-14T20:14:14.168Z,3.80
2018-01-14T20:16:40.432Z,4.50
2018-01-14T20:19:06.673Z,4.20
2018-01-14T20:21:32.906Z,4.30
2018-01-14T20:23:59.137Z,4.30
2018-01-14T20:26:25.346Z,4.20
2018-01-14T20:28:52.397Z,4.20
2018-01-14T20:31:18.739Z,4.10
2018-01-14T20:33:44.985Z,4.10
2018-01-14T20:36:11.312Z,4.20
2018-01-14T20:38:37.565Z,4.10
2018-01-14T20:41:03.824Z,4.20
2018-01-14T20:43:30.058Z,4.40
2018-01-14T20:45:57.128Z,4.20
2018-01-14T20:48:24.118Z,4.10
2018-01-14T20:50:50.409Z,4.10
2018-01-14T20:53:16.674Z,4.10
2018-01-14T20:55:43.666Z,4.10
2018-01-14T20:58:09.926Z,4.00
2018-01-14T21:00:36.233Z,4.00
2018-01-14T21:03:02.628Z,4.10
2018-01-14T21:05:28.917Z,4.10
2018-01-14T21:07:55.217Z,4.10
2018-01-14T21:10:21.459Z,4.40
2018-01-14T21:12:47.733Z,4.20
2018-01-14T21:15:14.002Z,4.30
2018-01-14T21:17:40.291Z,4.00
2018-01-14T21:20:06.785Z,4.00
2018-01-14T21:22:33.054Z,4.00
2018-01-14T21:24:59.307Z,3.90
2018-01-14T21:27:25.638Z,3.90
2018-01-14T21:29:51.900Z,3.90
2018-01-14T21:32:18.149Z,4.00
2018-01-14T21:34:45.137Z,3.90
2018-01-14T21:37:11.597Z,3.80
2018-01-14T21:39:37.918Z,3.90
2018-01-14T21:42:04.216Z,3.80
2018-01-14T21:44:30.467Z,3.80
2018-01-14T21:46:58.198Z,3.80
2018-01-14T21:49:24.467Z,3.80
2018-01-14T21:51:50.759Z,3.80
2018-01-14T21:54:17.020Z,3.90
2018-01-14T21:56:43.065Z,4.00
2018-01-14T21:59:09.141Z,3.80
2018-01-14T22:01:35.185Z,3.90
2018-01-14T22:04:01.217Z,3.90
2018-01-14T22:06:29.101Z,3.90
2018-01-14T22:08:55.142Z,3.90
2018-01-14T22:11:21.288Z,3.90
2018-01-14T22:13:48.072Z,3.90
2018-01-14T22:16:14.151Z,3.70
2018-01-14T22:18:40.166Z,3.90
2018-01-14T22:21:06.243Z,3.90
2018-01-14T22:23:32.369Z,3.90
2018-01-14T22:25:58.420Z,4.00
2018-01-14T22:28:25.213Z,4.00
2018-01-14T22:30:51.253Z,4.00
2018-01-14T22:33:17.288Z,4.10
2018-01-14T22:35:43.537Z,4.10
2018-01-14T22:38:09.641Z,4.00
2018-01-14T22:40:36.541Z,4.00
2018-01-14T22:43:02.611Z,4.00
2018-01-14T22:45:28.672Z,3.90
2018-01-14T22:47:55.485Z,4.00
2018-01-14T22:50:21.545Z,4.00
2018-01-14T22:52:48.341Z,4.00
2018-01-14T22:55:14.425Z,3.90
2018-01-14T22:57:40.580Z,3.90
2018-01-14T23:00:07.388Z,3.80
2018-01-14T23:02:33.476Z,3.80
2018-01-14T23:05:00.253Z,3.90
2018-01-14T23:07:26.293Z,3.90
2018-01-14T23:09:52.357Z,4.00
2018-01-14T23:12:18.421Z,4.00
2018-01-14T23:14:50.604Z,3.90
2018-01-14T23:17:16.649Z,3.90
2018-01-14T23:19:45.406Z,3.90
2018-01-14T23:22:12.192Z,4.00
2018-01-14T23:24:38.258Z,4.00
2018-01-14T23:27:04.304Z,3.90
2018-01-14T23:29:30.336Z,3.90
2018-01-14T23:31:56.360Z,3.90
2018-01-14T23:34:23.148Z,4.00
2018-01-14T23:36:49.297Z,4.00
2018-01-14T23:39:15.345Z,4.10
2018-01-14T23:41:41.404Z,4.10
2018-01-14T23:44:07.416Z,4.10
2018-01-14T23:46:33.428Z,4.40
2018-01-14T23:48:59.460Z,4.00
2018-01-14T23:51:25.496Z,4.10
2018-01-14T23:53:52.328Z,4.20
2018-01-14T23:56:18.340Z,4.10
2018-01-14T23:58:45.118Z,4.00
